Time;durP1;ratioP1;P1;durP2;ratioP2;P2;SDS_P1;SDS_P2;PMS_P1;PMS_P2;Temp;Humidity;BMP_temperature;BMP_pressure;BME280_temperature;BME280_humidity;BME280_pressure;Samples;Min_cycle;Max_cycle;Signal;HPM_P1;HPM_P2
2021/12/19 07:25:43;;;;;;;19.80;11.27;;;1.30;99.90;;;;;;4772760;30;20214;-85
2021/12/19 07:28:28;;;;;;;16.67;9.63;;;1.50;99.90;;;;;;4785204;30;20223;-85
2021/12/19 08:33:05;;;;;;;10.07;4.50;;;2.00;99.90;;;;;;4925066;29;20225;-86
2021/12/19 08:35:39;;;;;;;4.18;3.78;;;1.90;99.90;;;;;;4893581;29;20212;-86
2021/12/19 08:38:33;;;;;;;5.15;4.00;;;1.90;99.90;;;;;;4897555;29;20260;-85
2021/12/19 09:46:51;;;;;;;5.97;4.60;;;2.30;99.90;;;;;;4158545;26;20222;-86
2021/12/19 09:49:22;;;;;;;7.57;4.25;;;2.30;99.90;;;;;;5021897;28;20282;-82
2021/12/19 09:52:09;;;;;;;8.27;5.13;;;2.30;99.90;;;;;;5019823;28;20220;-84
2021/12/19 09:54:41;;;;;;;9.43;3.78;;;2.50;99.90;;;;;;5022229;28;20571;-85
2021/12/19 10:00:30;;;;;;;4.93;3.80;;;2.20;99.90;;;;;;5020657;28;20281;-85
2021/12/19 10:07:28;;;;;;;6.32;5.07;;;2.40;99.90;;;;;;5078085;27;20557;-85
2021/12/19 10:10:44;;;;;;;8.45;5.45;;;2.70;99.90;;;;;;5079213;28;20237;-84
2021/12/19 10:13:21;;;;;;;6.38;4.90;;;2.80;99.90;;;;;;5055149;28;20657;-85
2021/12/19 10:16:29;;;;;;;6.28;4.45;;;3.00;99.90;;;;;;5056950;28;20694;-84
2021/12/19 10:18:59;;;;;;;6.05;4.05;;;3.00;99.90;;;;;;5058390;28;20207;-83
2021/12/19 10:21:28;;;;;;;5.30;4.18;;;3.00;99.90;;;;;;5059170;28;20219;-83
2021/12/19 10:24:02;;;;;;;4.78;3.20;;;2.80;99.90;;;;;;5056901;28;20207;-84
2021/12/19 10:26:41;;;;;;;5.65;4.72;;;2.70;99.90;;;;;;5057846;28;20234;-83
2021/12/19 10:29:10;;;;;;;3.90;3.25;;;2.80;99.90;;;;;;5058731;28;20203;-84
2021/12/19 10:31:40;;;;;;;3.35;2.85;;;2.80;99.90;;;;;;5056796;28;20208;-85
2021/12/19 10:34:24;;;;;;;3.58;3.25;;;2.90;99.90;;;;;;5055361;28;20214;-84
2021/12/19 10:36:54;;;;;;;3.47;3.17;;;3.00;99.90;;;;;;5054976;28;20263;-84
2021/12/19 10:39:26;;;;;;;4.07;3.20;;;3.10;99.90;;;;;;5054995;28;20626;-84
2021/12/19 10:42:20;;;;;;;4.25;3.40;;;3.10;99.90;;;;;;5055961;28;20255;-84
2021/12/19 10:47:39;;;;;;;6.18;4.70;;;2.80;99.90;;;;;;5057222;28;20696;-84
2021/12/19 10:50:20;;;;;;;3.85;3.35;;;2.80;99.90;;;;;;5056288;28;20224;-84
2021/12/19 10:53:05;;;;;;;5.47;3.45;;;3.00;99.90;;;;;;5054765;28;20204;-84
2021/12/19 10:55:34;;;;;;;4.40;4.00;;;3.30;99.90;;;;;;5054324;28;20208;-84
2021/12/19 10:58:01;;;;;;;6.10;4.50;;;3.10;99.90;;;;;;5055840;28;20357;-83
2021/12/19 11:00:29;;;;;;;3.47;3.22;;;2.90;99.90;;;;;;5056632;28;20310;-84
2021/12/19 11:02:56;;;;;;;4.18;3.63;;;3.00;99.90;;;;;;5056938;28;20205;-84
2021/12/19 11:05:39;;;;;;;4.22;3.28;;;3.10;99.90;;;;;;5055978;28;20266;-84
2021/12/19 11:08:08;;;;;;;4.18;3.35;;;3.10;99.90;;;;;;5071242;28;20658;-83
2021/12/19 11:10:38;;;;;;;4.15;3.10;;;3.00;99.90;;;;;;5071852;28;20224;-83
2021/12/19 11:13:10;;;;;;;3.63;3.30;;;2.70;99.90;;;;;;5060086;28;20239;-82
2021/12/19 11:15:37;;;;;;;4.57;3.35;;;2.70;99.90;;;;;;5072167;28;20249;-80
2021/12/19 11:18:05;;;;;;;5.53;3.67;;;2.90;99.90;;;;;;5056845;28;20208;-83
2021/12/19 11:20:32;;;;;;;4.70;4.25;;;2.80;99.90;;;;;;5055617;28;20250;-80
2021/12/19 11:22:59;;;;;;;4.00;2.80;;;2.90;99.90;;;;;;5058326;28;20204;-78
2021/12/19 11:25:26;;;;;;;4.40;3.88;;;2.80;99.90;;;;;;5065362;28;20212;-79
2021/12/19 11:27:55;;;;;;;5.18;4.68;;;2.70;99.90;;;;;;5078920;28;20199;-78
2021/12/19 11:30:22;;;;;;;3.85;3.40;;;2.70;99.90;;;;;;5068121;28;20219;-78
2021/12/19 11:33:05;;;;;;;4.70;4.00;;;2.80;99.90;;;;;;5056126;28;20206;-79
2021/12/19 11:35:36;;;;;;;4.70;4.30;;;2.90;99.90;;;;;;5055551;28;20229;-80
2021/12/19 11:38:06;;;;;;;5.30;3.85;;;3.00;99.90;;;;;;5061559;28;20210;-79
2021/12/19 11:40:36;;;;;;;5.18;4.68;;;2.70;99.90;;;;;;5054353;28;20233;-79
2021/12/19 11:43:06;;;;;;;4.25;3.42;;;2.80;99.90;;;;;;5057736;28;20226;-83
2021/12/19 11:45:36;;;;;;;5.07;4.38;;;2.80;99.90;;;;;;5059593;28;20227;-82
2021/12/19 11:48:08;;;;;;;6.55;4.10;;;3.00;99.90;;;;;;5059485;28;20208;-81
2021/12/19 11:50:37;;;;;;;5.40;4.50;;;2.90;99.90;;;;;;5058763;28;20221;-82
2021/12/19 11:53:26;;;;;;;5.35;4.85;;;3.00;99.90;;;;;;5064086;28;20194;-82
2021/12/19 11:55:54;;;;;;;6.95;3.85;;;3.10;99.90;;;;;;5056909;28;20200;-83
2021/12/19 11:58:45;;;;;;;5.90;5.25;;;3.40;99.90;;;;;;5044375;28;20402;-84
2021/12/19 12:01:14;;;;;;;5.25;4.20;;;3.20;99.90;;;;;;5039668;28;20221;-81
2021/12/19 12:03:53;;;;;;;6.70;5.20;;;3.20;99.90;;;;;;5039686;28;20211;-81
2021/12/19 12:06:41;;;;;;;6.80;5.70;;;2.80;99.90;;;;;;5049119;28;20235;-80
2021/12/19 12:09:19;;;;;;;6.50;4.97;;;3.00;99.90;;;;;;5049483;28;20266;-80
2021/12/19 12:12:08;;;;;;;8.77;5.75;;;3.10;99.90;;;;;;5040244;28;20285;-81
2021/12/19 12:14:39;;;;;;;6.00;5.38;;;3.40;99.90;;;;;;5033111;28;20707;-81
2021/12/19 12:17:11;;;;;;;4.63;4.22;;;3.20;99.90;;;;;;5040278;28;20197;-82
2021/12/19 12:19:41;;;;;;;4.90;3.80;;;3.10;99.90;;;;;;5039492;28;20221;-81
2021/12/19 12:22:32;;;;;;;5.82;4.38;;;3.10;99.90;;;;;;5038077;28;20203;-80
2021/12/19 12:25:08;;;;;;;8.18;4.97;;;3.20;99.90;;;;;;5048040;28;20753;-81
2021/12/19 12:27:37;;;;;;;4.90;3.38;;;3.20;99.90;;;;;;5049073;28;20245;-81
2021/12/19 12:30:08;;;;;;;7.30;4.93;;;3.20;99.90;;;;;;5051073;28;20221;-81
2021/12/19 12:32:35;;;;;;;7.30;4.82;;;3.20;99.90;;;;;;5047936;28;20568;-81
2021/12/19 12:35:03;;;;;;;5.28;4.75;;;3.10;99.90;;;;;;5060027;28;20197;-79
2021/12/19 12:37:30;;;;;;;8.13;5.60;;;3.10;99.90;;;;;;5066705;28;20235;-79
2021/12/19 12:40:23;;;;;;;7.30;5.00;;;3.10;99.90;;;;;;5073779;28;20206;-78
2021/12/19 12:43:09;;;;;;;7.00;6.22;;;3.30;99.90;;;;;;5077841;28;20207;-78
2021/12/19 12:46:08;;;;;;;8.40;5.30;;;3.40;99.90;;;;;;5069364;28;20196;-78
2021/12/19 12:48:53;;;;;;;8.68;4.78;;;3.50;99.90;;;;;;5051940;28;20220;-79
2021/12/19 12:51:26;;;;;;;6.13;4.93;;;3.60;99.90;;;;;;5043851;28;20596;-77
2021/12/19 12:53:54;;;;;;;7.38;4.47;;;3.50;99.90;;;;;;5044913;28;20225;-78
2021/12/19 12:56:23;;;;;;;4.70;4.30;;;3.20;99.90;;;;;;5053075;28;20197;-81
2021/12/19 12:58:53;;;;;;;5.35;4.22;;;3.00;99.90;;;;;;5050405;28;20218;-81
2021/12/19 13:01:24;;;;;;;4.53;4.13;;;2.90;99.90;;;;;;5050777;28;20223;-80
2021/12/19 13:04:07;;;;;;;7.25;5.07;;;2.90;99.90;;;;;;5045273;28;20208;-81
2021/12/19 13:06:50;;;;;;;6.28;4.85;;;2.90;99.90;;;;;;5039515;28;20226;-79
2021/12/19 13:09:20;;;;;;;5.70;4.22;;;2.80;99.90;;;;;;5039181;28;20206;-81
2021/12/19 13:11:49;;;;;;;5.13;4.13;;;2.70;99.90;;;;;;5036718;28;20198;-80
2021/12/19 13:14:23;;;;;;;7.85;5.00;;;2.80;99.90;;;;;;5036478;28;20215;-79
2021/12/19 13:16:53;;;;;;;6.43;4.47;;;2.90;99.90;;;;;;5036322;28;20185;-79
2021/12/19 13:19:47;;;;;;;7.60;5.88;;;3.00;99.90;;;;;;5036695;28;20202;-79
2021/12/19 13:22:18;;;;;;;8.80;5.30;;;2.90;99.90;;;;;;5034354;28;20328;-79
2021/12/19 13:24:47;;;;;;;7.88;7.03;;;2.80;99.90;;;;;;5035640;28;20555;-79
2021/12/19 13:27:17;;;;;;;6.18;5.30;;;2.90;99.90;;;;;;5035394;28;20233;-80
2021/12/19 13:29:56;;;;;;;5.53;4.15;;;2.70;99.90;;;;;;5035164;28;20259;-79
2021/12/19 13:32:28;;;;;;;5.15;4.43;;;2.80;99.90;;;;;;5037294;28;20196;-79
2021/12/19 13:34:55;;;;;;;6.53;4.22;;;2.90;99.90;;;;;;5040145;28;20189;-79
2021/12/19 13:37:24;;;;;;;4.90;4.50;;;2.90;99.90;;;;;;5039577;28;20232;-80
2021/12/19 13:40:16;;;;;;;7.22;4.90;;;2.90;99.90;;;;;;5039057;28;20230;-80
2021/12/19 13:42:47;;;;;;;6.35;5.47;;;2.90;99.90;;;;;;5033340;28;20674;-79
2021/12/19 13:45:44;;;;;;;4.45;4.05;;;2.90;99.90;;;;;;5040665;28;20192;-79
2021/12/19 13:48:23;;;;;;;6.55;4.35;;;2.80;99.90;;;;;;5040683;28;20244;-79
2021/12/19 13:50:55;;;;;;;5.93;3.90;;;2.90;99.90;;;;;;5039288;28;20230;-81
2021/12/19 13:53:22;;;;;;;5.00;4.50;;;3.10;99.90;;;;;;5042226;28;20199;-80
2021/12/19 13:55:52;;;;;;;5.30;4.72;;;3.10;99.90;;;;;;5041049;28;20217;-79
2021/12/19 13:58:21;;;;;;;6.50;4.85;;;2.90;99.90;;;;;;5039262;28;20209;-79
2021/12/19 14:00:52;;;;;;;8.60;6.80;;;2.80;99.90;;;;;;5038762;28;20231;-79
2021/12/19 14:03:40;;;;;;;5.57;5.07;;;2.70;99.90;;;;;;5039375;28;20191;-80
2021/12/19 14:06:08;;;;;;;7.15;5.07;;;2.90;99.90;;;;;;5040168;28;20250;-79
2021/12/19 14:08:35;;;;;;;8.60;5.35;;;3.10;99.90;;;;;;5039917;28;20587;-81
2021/12/19 14:11:18;;;;;;;7.90;4.75;;;3.20;99.90;;;;;;5038869;28;20237;-79
2021/12/19 14:14:00;;;;;;;7.47;5.63;;;2.90;99.90;;;;;;5040692;28;20208;-80
2021/12/19 14:16:33;;;;;;;5.82;5.32;;;2.70;99.90;;;;;;5042147;28;20201;-79
2021/12/19 14:19:02;;;;;;;6.82;5.50;;;2.70;99.90;;;;;;5041324;28;20661;-79
2021/12/19 14:21:34;;;;;;;6.22;5.35;;;2.60;99.90;;;;;;5038805;28;20628;-81
2021/12/19 14:24:18;;;;;;;6.53;5.57;;;2.70;99.90;;;;;;5034413;28;20293;-81
2021/12/19 14:26:47;;;;;;;10.48;5.32;;;2.40;99.90;;;;;;5037664;28;20215;-81
2021/12/19 14:29:31;;;;;;;9.15;5.93;;;2.20;99.90;;;;;;5035266;28;20215;-81
2021/12/19 14:32:00;;;;;;;8.88;7.97;;;2.20;99.90;;;;;;5035358;28;20574;-81
2021/12/19 14:34:30;;;;;;;8.13;7.03;;;2.30;99.90;;;;;;5036712;28;20207;-81
2021/12/19 14:37:12;;;;;;;6.88;5.95;;;2.20;99.90;;;;;;5043635;28;20206;-82
2021/12/19 14:39:39;;;;;;;7.07;6.05;;;2.30;99.90;;;;;;5055755;28;20725;-80
2021/12/19 14:42:11;;;;;;;9.77;6.50;;;2.20;99.90;;;;;;5039004;28;20207;-81
2021/12/19 14:44:38;;;;;;;6.18;5.22;;;2.20;99.90;;;;;;5048048;28;20197;-82
2021/12/19 14:47:06;;;;;;;7.93;7.22;;;2.30;99.90;;;;;;5057781;28;20696;-82
2021/12/19 14:49:44;;;;;;;7.20;5.43;;;2.30;99.90;;;;;;5059786;28;20232;-83
2021/12/19 14:52:11;;;;;;;7.93;6.03;;;2.20;99.90;;;;;;5063470;28;20214;-82
2021/12/19 14:54:38;;;;;;;7.88;6.03;;;2.30;99.90;;;;;;5064614;28;20197;-83
2021/12/19 14:57:06;;;;;;;7.97;5.72;;;2.30;99.90;;;;;;5046327;28;20230;-83
2021/12/19 14:59:32;;;;;;;9.00;7.22;;;2.20;99.90;;;;;;5047160;28;20229;-83
2021/12/19 15:01:59;;;;;;;11.55;7.78;;;2.40;99.90;;;;;;5047721;28;20695;-83
2021/12/19 15:04:26;;;;;;;10.02;7.97;;;2.40;99.90;;;;;;5048136;28;20990;-82
2021/12/19 15:06:59;;;;;;;12.70;8.38;;;2.30;99.90;;;;;;5047011;28;20231;-84
2021/12/19 15:09:31;;;;;;;7.50;6.25;;;2.30;99.90;;;;;;5046751;28;20200;-84
2021/12/19 15:12:00;;;;;;;12.70;9.02;;;2.30;99.90;;;;;;5049008;28;20225;-83
2021/12/19 15:14:29;;;;;;;10.05;8.07;;;2.40;99.90;;;;;;5050170;28;20682;-83
2021/12/19 15:16:56;;;;;;;9.90;7.35;;;2.40;99.90;;;;;;5066621;28;20586;-81
2021/12/19 15:19:24;;;;;;;11.20;7.93;;;2.50;99.90;;;;;;5049725;28;20216;-81
2021/12/19 15:21:51;;;;;;;10.73;7.82;;;2.50;99.90;;;;;;5068099;28;20267;-81
2021/12/19 15:24:19;;;;;;;12.00;8.25;;;2.50;99.90;;;;;;5067225;28;20207;-81
2021/12/19 15:26:46;;;;;;;13.85;7.25;;;2.50;99.90;;;;;;5047408;28;20232;-81
2021/12/19 15:29:12;;;;;;;9.90;8.85;;;2.40;99.90;;;;;;5056616;28;20211;-81
2021/12/19 15:31:39;;;;;;;8.75;7.00;;;2.40;99.90;;;;;;5045943;28;20215;-81
2021/12/19 15:34:07;;;;;;;11.32;7.38;;;2.40;99.90;;;;;;5047203;28;20198;-81
2021/12/19 15:36:34;;;;;;;9.68;7.45;;;2.40;99.90;;;;;;5045607;28;20209;-81
2021/12/19 15:39:01;;;;;;;8.18;7.45;;;2.50;99.90;;;;;;5046368;28;20214;-81
2021/12/19 15:41:29;;;;;;;10.40;9.40;;;2.50;99.90;;;;;;5047509;28;20229;-81
2021/12/19 15:43:56;;;;;;;10.95;8.35;;;2.40;99.90;;;;;;5048197;28;20211;-81
2021/12/19 15:46:24;;;;;;;10.43;8.48;;;2.20;99.90;;;;;;5047535;28;20207;-81
2021/12/19 15:48:51;;;;;;;12.90;9.57;;;2.20;99.90;;;;;;5047827;28;20207;-80
2021/12/19 15:51:19;;;;;;;9.63;8.43;;;2.10;99.90;;;;;;5055650;28;20223;-80
2021/12/19 15:53:46;;;;;;;14.13;8.90;;;2.20;99.90;;;;;;5066980;28;20238;-80
2021/12/19 15:56:13;;;;;;;24.83;15.70;;;2.20;99.90;;;;;;5059905;28;20212;-80
2021/12/19 15:58:41;;;;;;;45.25;26.40;;;2.20;99.90;;;;;;5047216;28;20291;-80
2021/12/19 16:01:09;;;;;;;19.80;13.75;;;2.00;99.90;;;;;;5062422;28;20229;-80
2021/12/19 16:03:36;;;;;;;13.32;10.35;;;2.10;99.90;;;;;;5061413;28;20687;-80
2021/12/19 16:06:03;;;;;;;15.15;9.80;;;2.20;99.90;;;;;;5066382;28;20214;-80
2021/12/19 16:08:30;;;;;;;13.93;9.90;;;2.20;99.90;;;;;;5052706;28;20614;-80
2021/12/19 16:10:56;;;;;;;16.98;12.57;;;2.10;99.90;;;;;;5057282;28;20219;-80
2021/12/19 16:13:25;;;;;;;12.70;9.38;;;2.20;99.90;;;;;;5063021;28;20220;-80
2021/12/19 16:15:54;;;;;;;15.52;10.38;;;2.10;99.90;;;;;;5056033;28;20212;-80
2021/12/19 16:18:22;;;;;;;16.73;9.75;;;2.10;99.90;;;;;;5053733;28;20214;-80
2021/12/19 16:20:49;;;;;;;21.55;12.52;;;2.20;99.90;;;;;;5057186;28;20265;-80
2021/12/19 16:23:16;;;;;;;16.27;11.40;;;2.10;99.90;;;;;;5045392;28;20201;-80
2021/12/19 16:25:44;;;;;;;11.95;10.32;;;2.10;99.90;;;;;;5045953;28;20204;-80
2021/12/19 16:28:11;;;;;;;16.13;10.10;;;2.10;99.90;;;;;;5044474;28;20223;-80
2021/12/19 16:30:38;;;;;;;15.95;9.82;;;2.20;99.90;;;;;;5045379;28;20245;-80
2021/12/19 16:33:06;;;;;;;10.48;8.90;;;2.20;99.90;;;;;;5050111;28;20198;-80
2021/12/19 16:35:38;;;;;;;17.23;11.10;;;2.20;99.90;;;;;;5053405;28;20205;-80
2021/12/19 16:38:05;;;;;;;20.95;11.75;;;2.20;99.90;;;;;;5046623;28;20204;-80
2021/12/19 16:40:34;;;;;;;13.02;9.75;;;2.10;99.90;;;;;;5051401;28;20226;-80
2021/12/19 16:45:46;;;;;;;13.95;9.50;;;2.20;99.90;;;;;;5055971;28;20197;-81
2021/12/19 16:48:14;;;;;;;13.52;8.95;;;2.00;99.90;;;;;;5055395;28;20840;-81
2021/12/19 16:50:42;;;;;;;9.75;6.38;;;2.00;99.90;;;;;;5061233;28;20221;-81
2021/12/19 16:53:09;;;;;;;10.55;9.27;;;1.90;99.90;;;;;;5051031;28;20208;-81
2021/12/19 16:55:36;;;;;;;10.20;8.70;;;1.80;99.90;;;;;;5065333;28;20208;-80
2021/12/19 16:58:03;;;;;;;9.50;6.70;;;1.80;99.90;;;;;;5068840;28;20206;-79
2021/12/19 17:00:31;;;;;;;10.05;8.07;;;1.80;99.90;;;;;;5054078;28;20743;-80
2021/12/19 17:02:58;;;;;;;11.82;8.18;;;1.80;99.90;;;;;;5044800;28;20214;-80
2021/12/19 17:05:26;;;;;;;14.77;10.05;;;1.80;99.90;;;;;;5058474;28;20211;-80
2021/12/19 17:07:53;;;;;;;15.27;11.15;;;1.80;99.90;;;;;;5054428;28;20233;-80
2021/12/19 17:10:20;;;;;;;18.85;11.55;;;1.60;99.90;;;;;;5045091;28;20227;-80
2021/12/19 17:12:52;;;;;;;11.30;8.35;;;1.40;99.90;;;;;;5053890;28;20211;-80
2021/12/19 17:15:19;;;;;;;12.75;10.48;;;1.30;99.90;;;;;;5065331;28;20616;-80
2021/12/19 17:17:46;;;;;;;12.48;10.43;;;1.40;99.90;;;;;;5057096;28;20198;-80
2021/12/19 17:20:13;;;;;;;14.45;10.48;;;1.30;99.90;;;;;;5045664;28;20235;-80
2021/12/19 17:22:41;;;;;;;18.35;10.73;;;1.30;99.90;;;;;;5060316;28;20206;-80
2021/12/19 17:25:09;;;;;;;16.25;9.90;;;1.30;99.90;;;;;;5065705;28;20215;-80
2021/12/19 17:27:35;;;;;;;14.70;9.15;;;1.30;99.90;;;;;;5049996;28;20224;-80
2021/12/19 17:30:04;;;;;;;16.73;10.90;;;1.30;99.90;;;;;;5045379;28;20227;-80
2021/12/19 17:32:31;;;;;;;19.77;11.15;;;1.40;99.90;;;;;;5057185;28;20210;-80
2021/12/19 17:34:58;;;;;;;15.77;11.25;;;1.40;99.90;;;;;;5065104;28;20212;-80
2021/12/19 17:37:26;;;;;;;18.98;11.50;;;1.50;99.90;;;;;;5045689;28;20592;-80
2021/12/19 17:39:57;;;;;;;22.65;11.27;;;1.60;99.90;;;;;;5044340;28;20294;-80
2021/12/19 17:42:24;;;;;;;20.80;10.95;;;1.60;99.90;;;;;;5063360;28;20745;-80
2021/12/19 17:44:51;;;;;;;26.60;14.13;;;1.70;99.90;;;;;;5064604;28;20213;-80
2021/12/19 17:47:18;;;;;;;23.05;12.45;;;1.90;99.90;;;;;;5046237;28;20223;-80
2021/12/19 17:49:45;;;;;;;24.58;14.18;;;1.90;99.90;;;;;;5045801;28;20225;-80
2021/12/19 17:52:11;;;;;;;23.63;13.90;;;1.80;99.90;;;;;;5056500;28;20212;-80
2021/12/19 17:54:38;;;;;;;22.13;15.98;;;1.90;99.90;;;;;;5046004;28;20212;-80
2021/12/19 17:57:06;;;;;;;20.88;13.35;;;2.00;99.90;;;;;;5046128;28;20198;-80
2021/12/19 17:59:34;;;;;;;25.58;13.07;;;1.90;99.90;;;;;;5041995;28;20220;-82
2021/12/19 18:02:00;;;;;;;25.63;17.25;;;2.00;99.90;;;;;;5045014;28;20210;-80
2021/12/19 18:04:28;;;;;;;24.70;12.45;;;2.10;99.90;;;;;;5054405;28;20207;-81
2021/12/19 18:06:56;;;;;;;25.92;16.00;;;2.00;99.90;;;;;;5061777;28;20605;-81
2021/12/19 18:09:23;;;;;;;24.90;14.30;;;2.00;99.90;;;;;;5045756;28;20212;-82
2021/12/19 18:11:50;;;;;;;26.20;14.30;;;2.10;99.90;;;;;;5056537;28;20203;-80
2021/12/19 18:14:18;;;;;;;31.30;15.63;;;2.30;99.90;;;;;;5046169;28;20208;-80
2021/12/19 18:16:45;;;;;;;47.65;24.65;;;2.40;99.90;;;;;;5050844;28;20211;-79
2021/12/19 18:19:11;;;;;;;22.63;14.98;;;2.60;99.90;;;;;;5042276;28;20295;-80
2021/12/19 18:21:38;;;;;;;24.63;14.40;;;2.40;99.90;;;;;;5039241;28;20222;-80
2021/12/19 18:24:05;;;;;;;31.10;16.25;;;2.40;99.90;;;;;;5040886;28;20209;-80
2021/12/19 18:26:33;;;;;;;22.77;13.55;;;2.40;99.90;;;;;;5041664;28;20203;-81
2021/12/19 18:29:01;;;;;;;24.90;17.27;;;2.40;99.90;;;;;;5054719;28;20681;-80
2021/12/19 18:31:32;;;;;;;22.33;15.38;;;2.30;99.90;;;;;;5054416;28;20219;-80
2021/12/19 18:34:06;;;;;;;26.45;13.57;;;2.40;99.90;;;;;;5048909;28;20209;-80
2021/12/19 18:36:36;;;;;;;23.83;15.60;;;2.20;99.90;;;;;;5055296;28;20618;-80
2021/12/19 18:39:05;;;;;;;24.10;15.27;;;2.20;99.90;;;;;;5055948;28;20217;-80
2021/12/19 18:41:38;;;;;;;20.92;14.57;;;2.30;99.90;;;;;;5057041;28;20222;-80
2021/12/19 18:44:11;;;;;;;27.42;13.85;;;2.40;99.90;;;;;;5044936;28;20212;-80
2021/12/19 18:46:48;;;;;;;22.58;16.23;;;2.50;99.90;;;;;;5044100;28;20616;-80
2021/12/19 18:49:27;;;;;;;25.85;14.75;;;2.60;99.90;;;;;;5050880;28;20219;-80
2021/12/19 18:52:01;;;;;;;25.27;13.88;;;2.70;99.90;;;;;;5064711;28;20209;-80
2021/12/19 18:54:41;;;;;;;22.95;14.55;;;2.70;99.90;;;;;;5055622;28;20291;-80
2021/12/19 18:57:10;;;;;;;24.02;14.25;;;2.80;99.90;;;;;;5044722;28;20243;-80
2021/12/19 18:59:40;;;;;;;23.25;13.90;;;2.80;99.90;;;;;;5060448;28;20245;-80
2021/12/19 19:02:20;;;;;;;27.65;13.40;;;2.80;99.90;;;;;;5064137;28;20219;-80
2021/12/19 19:04:49;;;;;;;23.50;13.60;;;2.80;99.90;;;;;;5046420;28;20202;-80
2021/12/19 19:07:17;;;;;;;26.63;13.52;;;2.70;99.90;;;;;;5056182;28;20207;-80
2021/12/19 19:09:46;;;;;;;21.55;14.95;;;2.70;99.90;;;;;;5064467;28;20259;-80
2021/12/19 19:12:16;;;;;;;23.20;14.10;;;2.70;99.90;;;;;;5064117;28;20229;-80
2021/12/19 19:14:47;;;;;;;26.30;15.10;;;2.70;99.90;;;;;;5061099;28;20205;-80
2021/12/19 19:17:15;;;;;;;23.38;12.25;;;2.70;99.90;;;;;;5045227;28;20305;-80
2021/12/19 19:19:43;;;;;;;21.15;13.75;;;2.80;99.90;;;;;;5045860;28;20217;-81
2021/12/19 19:22:10;;;;;;;22.00;11.57;;;2.70;99.90;;;;;;5050528;28;20204;-82
2021/12/19 19:24:37;;;;;;;20.63;12.68;;;2.60;99.90;;;;;;5047454;28;20233;-81
2021/12/19 19:27:04;;;;;;;20.67;13.40;;;2.80;99.90;;;;;;5048999;28;20200;-82
2021/12/19 19:29:31;;;;;;;26.98;16.90;;;2.80;99.90;;;;;;5045344;28;20595;-81
2021/12/19 19:31:58;;;;;;;24.20;13.55;;;3.00;99.90;;;;;;5048991;28;20199;-82
2021/12/19 19:34:26;;;;;;;21.42;13.35;;;3.10;99.90;;;;;;5048177;28;20206;-81
2021/12/19 19:36:56;;;;;;;23.80;14.15;;;3.10;99.90;;;;;;5047395;28;20202;-81
2021/12/19 19:39:46;;;;;;;19.40;12.82;;;3.10;99.90;;;;;;5042988;28;20222;-81
2021/12/19 19:42:24;;;;;;;25.00;15.13;;;3.20;99.90;;;;;;5051043;28;20208;-80
2021/12/19 19:50:36;;;;;;;21.17;14.38;;;3.40;99.90;;;;;;5038145;28;20227;-80
2021/12/19 19:53:06;;;;;;;17.65;11.40;;;3.40;99.90;;;;;;5032432;28;20203;-81
2021/12/19 19:55:33;;;;;;;22.83;14.23;;;3.30;99.90;;;;;;5037636;28;20219;-80
2021/12/19 19:58:00;;;;;;;17.85;14.15;;;3.10;99.90;;;;;;5046613;28;20218;-81
2021/12/19 20:00:27;;;;;;;21.77;13.00;;;3.10;99.90;;;;;;5042852;28;20229;-80
2021/12/19 20:02:59;;;;;;;20.13;13.52;;;3.20;99.90;;;;;;5048993;28;20208;-83
2021/12/19 20:05:25;;;;;;;21.70;13.75;;;3.20;99.90;;;;;;5059115;28;20210;-82
2021/12/19 20:07:54;;;;;;;25.52;14.55;;;3.10;99.90;;;;;;5059993;28;20239;-82
2021/12/19 20:10:21;;;;;;;24.80;14.02;;;3.00;99.90;;;;;;5052114;28;20646;-80
2021/12/19 20:12:48;;;;;;;24.50;14.10;;;3.10;99.90;;;;;;5045324;28;20683;-80
2021/12/19 20:15:15;;;;;;;19.63;13.15;;;3.20;99.90;;;;;;5055210;28;20200;-83
2021/12/19 20:17:43;;;;;;;19.65;11.95;;;3.10;99.90;;;;;;5064197;28;20291;-82
2021/12/19 20:20:11;;;;;;;20.15;13.13;;;3.10;99.90;;;;;;5054433;28;20239;-81
2021/12/19 20:22:38;;;;;;;24.75;14.00;;;3.20;99.90;;;;;;5055367;28;20204;-82
2021/12/19 20:25:07;;;;;;;19.00;12.85;;;3.20;99.90;;;;;;5059249;28;20231;-81
2021/12/19 20:27:34;;;;;;;25.25;13.88;;;3.20;99.90;;;;;;5060559;28;20588;-82
2021/12/19 20:30:01;;;;;;;17.80;14.02;;;3.20;99.90;;;;;;5055806;28;20700;-82
2021/12/19 20:32:27;;;;;;;24.20;14.40;;;3.20;99.90;;;;;;5049601;28;20690;-83
2021/12/19 20:34:54;;;;;;;27.27;15.05;;;3.20;99.90;;;;;;5055908;28;20247;-80
2021/12/19 20:37:26;;;;;;;28.67;17.27;;;3.20;99.90;;;;;;5060225;28;20198;-80
2021/12/19 20:39:53;;;;;;;23.63;15.38;;;3.10;99.90;;;;;;5046055;28;20220;-81
2021/12/19 20:42:25;;;;;;;25.33;15.20;;;3.10;99.90;;;;;;5047158;28;20672;-83
2021/12/19 20:44:51;;;;;;;19.85;14.90;;;3.30;99.90;;;;;;5058236;28;20213;-82
2021/12/19 20:47:19;;;;;;;26.75;15.75;;;3.40;99.90;;;;;;5055480;28;20306;-82
2021/12/19 20:49:46;;;;;;;22.83;16.13;;;3.40;99.90;;;;;;5042247;28;20232;-82
2021/12/19 20:52:15;;;;;;;22.50;13.45;;;3.60;99.90;;;;;;5049618;28;20212;-81
2021/12/19 20:54:42;;;;;;;28.42;15.00;;;3.60;99.90;;;;;;5058379;28;20212;-80
2021/12/19 20:57:09;;;;;;;26.65;16.17;;;3.60;99.90;;;;;;5044682;28;20703;-80
2021/12/19 20:59:37;;;;;;;24.85;14.63;;;3.60;99.90;;;;;;5045170;28;20276;-83
2021/12/19 21:02:04;;;;;;;22.55;13.55;;;3.70;99.90;;;;;;5039844;28;20210;-82
2021/12/19 21:04:31;;;;;;;28.95;17.67;;;3.60;99.90;;;;;;5044804;28;20207;-82
2021/12/19 21:07:00;;;;;;;23.45;15.73;;;3.60;99.90;;;;;;5040770;28;20214;-81
2021/12/19 21:09:27;;;;;;;20.85;15.85;;;3.70;99.90;;;;;;5040973;28;20221;-82
2021/12/19 21:11:59;;;;;;;26.02;15.30;;;3.70;99.90;;;;;;5043872;28;20206;-82
2021/12/19 21:14:37;;;;;;;24.98;15.68;;;3.60;99.90;;;;;;5046584;28;20199;-82
2021/12/19 21:19:51;;;;;;;25.15;14.82;;;3.70;99.90;;;;;;5037629;28;20225;-82
2021/12/19 21:22:21;;;;;;;21.52;14.90;;;3.70;99.90;;;;;;5038134;28;20208;-81
2021/12/19 21:24:48;;;;;;;21.27;12.88;;;3.80;99.90;;;;;;5038272;28;20202;-80
2021/12/19 21:27:16;;;;;;;24.17;15.05;;;3.70;99.90;;;;;;5038851;28;20212;-82
2021/12/19 21:29:44;;;;;;;26.10;15.35;;;3.80;99.90;;;;;;5038502;28;21065;-81
2021/12/19 21:32:16;;;;;;;28.05;16.75;;;3.80;99.90;;;;;;5041348;28;20683;-83
2021/12/19 21:34:46;;;;;;;29.40;18.38;;;3.80;99.90;;;;;;5038840;28;20197;-82
2021/12/19 21:40:07;;;;;;;31.00;17.95;;;3.90;99.90;;;;;;5038664;28;20217;-81
2021/12/19 21:42:35;;;;;;;23.92;16.45;;;3.90;99.90;;;;;;5039425;28;20206;-80
2021/12/19 21:45:02;;;;;;;29.73;18.52;;;3.90;99.90;;;;;;5038400;28;20205;-82
2021/12/19 21:47:30;;;;;;;24.42;16.33;;;3.90;99.90;;;;;;5038556;28;20233;-83
2021/12/19 21:49:57;;;;;;;25.88;18.92;;;3.90;99.90;;;;;;5044323;28;20242;-82
2021/12/19 21:52:24;;;;;;;26.65;18.13;;;4.10;99.90;;;;;;5045762;28;20228;-82
2021/12/19 21:54:51;;;;;;;23.73;18.40;;;4.20;99.90;;;;;;5047724;28;20213;-81
2021/12/19 21:57:20;;;;;;;34.55;17.50;;;4.20;99.90;;;;;;5044587;28;20208;-82
2021/12/19 21:59:47;;;;;;;19.73;15.93;;;4.20;99.90;;;;;;5040946;28;20233;-83
2021/12/19 22:02:14;;;;;;;23.63;15.77;;;4.20;99.90;;;;;;5040268;28;20268;-83
2021/12/19 22:04:42;;;;;;;31.92;17.65;;;4.20;99.90;;;;;;5037739;28;20198;-83
2021/12/19 22:07:09;;;;;;;23.88;16.95;;;4.30;99.90;;;;;;5035596;28;20564;-83
2021/12/19 22:09:36;;;;;;;21.55;16.85;;;4.30;99.90;;;;;;5037285;28;20707;-83
2021/12/19 22:12:07;;;;;;;30.92;16.80;;;4.40;99.90;;;;;;5037747;28;20206;-82
2021/12/19 22:17:19;;;;;;;25.00;18.30;;;4.50;99.90;;;;;;5036512;28;20325;-81
2021/12/19 22:19:47;;;;;;;25.85;16.55;;;4.60;99.90;;;;;;5037274;28;20215;-83
2021/12/19 22:22:14;;;;;;;25.63;17.40;;;4.50;99.90;;;;;;5037605;28;20213;-81
2021/12/19 22:24:44;;;;;;;28.85;21.33;;;4.50;99.90;;;;;;5039495;28;20205;-82
2021/12/19 22:27:11;;;;;;;27.63;15.90;;;4.50;99.90;;;;;;5038487;28;20210;-82
2021/12/19 22:29:38;;;;;;;25.92;19.75;;;4.60;99.90;;;;;;5040913;28;20222;-82
2021/12/19 22:32:06;;;;;;;25.75;18.10;;;4.60;99.90;;;;;;5056129;28;20271;-82
2021/12/19 22:34:33;;;;;;;22.58;18.60;;;4.70;99.90;;;;;;5047875;28;20201;-82
2021/12/19 22:37:01;;;;;;;30.42;17.00;;;4.70;99.90;;;;;;5048522;28;20202;-80
2021/12/19 22:39:28;;;;;;;26.58;17.17;;;4.70;99.90;;;;;;5052112;28;20197;-80
2021/12/19 22:41:55;;;;;;;27.20;16.75;;;4.80;99.90;;;;;;5049256;28;20572;-82
2021/12/19 22:44:21;;;;;;;26.52;15.93;;;4.80;99.90;;;;;;5041362;28;20203;-83
2021/12/19 22:46:48;;;;;;;22.45;15.52;;;4.80;99.90;;;;;;5051133;28;20209;-82
2021/12/19 22:49:15;;;;;;;23.48;16.50;;;4.80;99.90;;;;;;5047014;28;20226;-82
2021/12/19 22:51:42;;;;;;;27.80;16.25;;;4.80;99.90;;;;;;5047390;28;20670;-81
2021/12/19 22:54:10;;;;;;;21.75;17.58;;;4.60;99.90;;;;;;5045488;28;20198;-82
2021/12/19 22:56:37;;;;;;;29.17;17.63;;;4.70;99.90;;;;;;5047449;28;20205;-82
2021/12/19 22:59:05;;;;;;;23.60;16.90;;;4.70;99.90;;;;;;5046754;28;20689;-81
2021/12/19 23:01:32;;;;;;;24.67;15.60;;;4.70;99.90;;;;;;5053852;28;20234;-82
2021/12/19 23:03:59;;;;;;;28.00;17.25;;;4.60;99.90;;;;;;5054179;28;20201;-82